sensor_id;sensor_type;location;lat;lon;timestamp;temperature;humidity
9847;DHT22;4962;50.084;8.794;2022-07-30T00:01:57;23.90;91.20
9847;DHT22;4962;50.084;8.794;2022-07-30T00:04:26;23.80;91.30
9847;DHT22;4962;50.084;8.794;2022-07-30T00:06:53;23.80;91.40
9847;DHT22;4962;50.084;8.794;2022-07-30T00:09:20;23.80;91.60
9847;DHT22;4962;50.084;8.794;2022-07-30T00:11:47;23.70;91.60
9847;DHT22;4962;50.084;8.794;2022-07-30T00:14:14;23.70;91.70
9847;DHT22;4962;50.084;8.794;2022-07-30T00:16:41;23.60;91.70
9847;DHT22;4962;50.084;8.794;2022-07-30T00:19:08;23.60;91.80
9847;DHT22;4962;50.084;8.794;2022-07-30T00:21:37;23.60;91.90
9847;DHT22;4962;50.084;8.794;2022-07-30T00:24:05;23.50;92.00
9847;DHT22;4962;50.084;8.794;2022-07-30T00:26:33;23.50;92.10
9847;DHT22;4962;50.084;8.794;2022-07-30T00:29:00;23.50;92.20
9847;DHT22;4962;50.084;8.794;2022-07-30T00:31:27;23.40;92.30
9847;DHT22;4962;50.084;8.794;2022-07-30T00:33:54;23.30;92.60
9847;DHT22;4962;50.084;8.794;2022-07-30T00:36:20;23.20;93.10
9847;DHT22;4962;50.084;8.794;2022-07-30T00:38:49;23.10;93.50
9847;DHT22;4962;50.084;8.794;2022-07-30T00:41:16;23.00;93.80
9847;DHT22;4962;50.084;8.794;2022-07-30T00:43:43;23.00;94.00
9847;DHT22;4962;50.084;8.794;2022-07-30T00:46:10;23.00;94.40
9847;DHT22;4962;50.084;8.794;2022-07-30T00:48:39;22.90;93.90
9847;DHT22;4962;50.084;8.794;2022-07-30T00:51:06;22.90;93.80
9847;DHT22;4962;50.084;8.794;2022-07-30T00:53:33;22.90;93.80
9847;DHT22;4962;50.084;8.794;2022-07-30T00:56:03;23.00;93.70
9847;DHT22;4962;50.084;8.794;2022-07-30T00:58:30;23.00;93.70
9847;DHT22;4962;50.084;8.794;2022-07-30T01:00:56;22.90;93.70
9847;DHT22;4962;50.084;8.794;2022-07-30T01:03:23;22.90;93.80
9847;DHT22;4962;50.084;8.794;2022-07-30T01:05:50;22.90;94.10
9847;DHT22;4962;50.084;8.794;2022-07-30T01:08:17;22.80;94.30
9847;DHT22;4962;50.084;8.794;2022-07-30T01:10:43;22.80;94.40
9847;DHT22;4962;50.084;8.794;2022-07-30T01:13:12;22.80;94.60
9847;DHT22;4962;50.084;8.794;2022-07-30T01:15:39;22.70;94.50
9847;DHT22;4962;50.084;8.794;2022-07-30T01:18:09;22.70;94.50
9847;DHT22;4962;50.084;8.794;2022-07-30T01:20:42;22.70;94.50
9847;DHT22;4962;50.084;8.794;2022-07-30T01:23:15;22.70;94.50
9847;DHT22;4962;50.084;8.794;2022-07-30T01:25:52;22.70;94.50
9847;DHT22;4962;50.084;8.794;2022-07-30T01:28:23;22.70;94.60
9847;DHT22;4962;50.084;8.794;2022-07-30T01:30:53;22.60;94.60
9847;DHT22;4962;50.084;8.794;2022-07-30T01:33:23;22.60;94.60
9847;DHT22;4962;50.084;8.794;2022-07-30T01:35:51;22.60;94.60
9847;DHT22;4962;50.084;8.794;2022-07-30T01:38:21;22.60;94.80
9847;DHT22;4962;50.084;8.794;2022-07-30T01:40:51;22.60;94.80
9847;DHT22;4962;50.084;8.794;2022-07-30T01:43:20;22.60;94.90
9847;DHT22;4962;50.084;8.794;2022-07-30T01:45:49;22.50;94.90
9847;DHT22;4962;50.084;8.794;2022-07-30T01:48:19;22.50;94.90
9847;DHT22;4962;50.084;8.794;2022-07-30T01:50:49;22.50;95.00
9847;DHT22;4962;50.084;8.794;2022-07-30T01:53:19;22.50;95.00
9847;DHT22;4962;50.084;8.794;2022-07-30T01:55:47;22.50;95.10
9847;DHT22;4962;50.084;8.794;2022-07-30T01:58:18;22.50;95.20
9847;DHT22;4962;50.084;8.794;2022-07-30T02:00:48;22.40;95.30
9847;DHT22;4962;50.084;8.794;2022-07-30T02:03:15;22.40;95.40
9847;DHT22;4962;50.084;8.794;2022-07-30T02:05:46;22.40;95.40
9847;DHT22;4962;50.084;8.794;2022-07-30T02:08:17;22.40;95.60
9847;DHT22;4962;50.084;8.794;2022-07-30T02:10:49;22.40;95.70
9847;DHT22;4962;50.084;8.794;2022-07-30T02:13:20;22.30;95.80
9847;DHT22;4962;50.084;8.794;2022-07-30T02:15:50;22.30;95.90
9847;DHT22;4962;50.084;8.794;2022-07-30T02:18:24;22.30;96.10
9847;DHT22;4962;50.084;8.794;2022-07-30T02:20:55;22.30;96.10
9847;DHT22;4962;50.084;8.794;2022-07-30T02:23:25;22.30;96.10
9847;DHT22;4962;50.084;8.794;2022-07-30T02:25:56;22.20;96.20
9847;DHT22;4962;50.084;8.794;2022-07-30T02:28:28;22.20;96.30
9847;DHT22;4962;50.084;8.794;2022-07-30T02:30:58;22.20;96.40
9847;DHT22;4962;50.084;8.794;2022-07-30T02:33:27;22.10;96.50
9847;DHT22;4962;50.084;8.794;2022-07-30T02:35:56;22.10;96.80
9847;DHT22;4962;50.084;8.794;2022-07-30T02:38:25;22.10;97.10
9847;DHT22;4962;50.084;8.794;2022-07-30T02:40:54;22.00;97.40
9847;DHT22;4962;50.084;8.794;2022-07-30T02:43:23;22.00;97.70
9847;DHT22;4962;50.084;8.794;2022-07-30T02:45:52;21.90;98.00
9847;DHT22;4962;50.084;8.794;2022-07-30T02:48:20;21.90;98.50
9847;DHT22;4962;50.084;8.794;2022-07-30T02:50:51;21.90;98.90
9847;DHT22;4962;50.084;8.794;2022-07-30T02:53:20;21.80;99.30
9847;DHT22;4962;50.084;8.794;2022-07-30T02:55:48;21.80;99.80
9847;DHT22;4962;50.084;8.794;2022-07-30T02:58:18;21.80;99.90
9847;DHT22;4962;50.084;8.794;2022-07-30T03:00:45;21.70;99.90
9847;DHT22;4962;50.084;8.794;2022-07-30T03:03:15;21.70;99.90
9847;DHT22;4962;50.084;8.794;2022-07-30T03:05:43;21.70;99.90
9847;DHT22;4962;50.084;8.794;2022-07-30T03:08:10;21.60;99.90
9847;DHT22;4962;50.084;8.794;2022-07-30T03:10:38;21.60;99.90
9847;DHT22;4962;50.084;8.794;2022-07-30T03:13:09;21.60;99.90
9847;DHT22;4962;50.084;8.794;2022-07-30T03:15:41;21.50;99.90
9847;DHT22;4962;50.084;8.794;2022-07-30T03:18:12;21.50;99.90
9847;DHT22;4962;50.084;8.794;2022-07-30T03:20:43;21.50;99.90
9847;DHT22;4962;50.084;8.794;2022-07-30T03:23:15;21.50;99.90
9847;DHT22;4962;50.084;8.794;2022-07-30T03:25:45;21.40;99.90
9847;DHT22;4962;50.084;8.794;2022-07-30T03:28:13;21.40;99.90
9847;DHT22;4962;50.084;8.794;2022-07-30T03:30:40;21.40;99.90
9847;DHT22;4962;50.084;8.794;2022-07-30T03:33:09;21.40;99.90
9847;DHT22;4962;50.084;8.794;2022-07-30T03:35:37;21.40;99.90
9847;DHT22;4962;50.084;8.794;2022-07-30T03:38:06;21.30;99.90
9847;DHT22;4962;50.084;8.794;2022-07-30T03:40:35;21.30;99.90
9847;DHT22;4962;50.084;8.794;2022-07-30T03:43:03;21.30;99.90
9847;DHT22;4962;50.084;8.794;2022-07-30T03:45:30;21.20;99.90
9847;DHT22;4962;50.084;8.794;2022-07-30T03:47:57;21.20;99.90
9847;DHT22;4962;50.084;8.794;2022-07-30T03:50:24;21.20;99.90
9847;DHT22;4962;50.084;8.794;2022-07-30T03:52:52;21.20;99.90
9847;DHT22;4962;50.084;8.794;2022-07-30T03:55:21;21.20;99.90
9847;DHT22;4962;50.084;8.794;2022-07-30T03:57:48;21.10;99.90
9847;DHT22;4962;50.084;8.794;2022-07-30T04:00:15;21.10;99.90
9847;DHT22;4962;50.084;8.794;2022-07-30T04:02:43;21.10;99.90
9847;DHT22;4962;50.084;8.794;2022-07-30T04:05:10;21.10;99.90
9847;DHT22;4962;50.084;8.794;2022-07-30T04:07:37;21.10;99.90
9847;DHT22;4962;50.084;8.794;2022-07-30T04:10:05;21.10;99.90
9847;DHT22;4962;50.084;8.794;2022-07-30T04:12:34;21.10;99.90
9847;DHT22;4962;50.084;8.794;2022-07-30T04:15:01;21.10;99.90
9847;DHT22;4962;50.084;8.794;2022-07-30T04:17:32;21.00;99.90
9847;DHT22;4962;50.084;8.794;2022-07-30T04:20:05;21.00;99.90
9847;DHT22;4962;50.084;8.794;2022-07-30T04:22:33;21.00;99.90
9847;DHT22;4962;50.084;8.794;2022-07-30T04:25:02;21.00;99.90
9847;DHT22;4962;50.084;8.794;2022-07-30T04:27:31;21.00;99.90
9847;DHT22;4962;50.084;8.794;2022-07-30T04:30:01;21.10;99.90
9847;DHT22;4962;50.084;8.794;2022-07-30T04:32:30;21.10;99.90
9847;DHT22;4962;50.084;8.794;2022-07-30T04:34:57;21.10;99.90
9847;DHT22;4962;50.084;8.794;2022-07-30T04:37:25;21.20;99.90
9847;DHT22;4962;50.084;8.794;2022-07-30T04:39:53;21.20;99.90
9847;DHT22;4962;50.084;8.794;2022-07-30T04:42:22;21.20;99.90
9847;DHT22;4962;50.084;8.794;2022-07-30T04:44:50;21.30;99.90
9847;DHT22;4962;50.084;8.794;2022-07-30T04:47:18;21.30;99.90
9847;DHT22;4962;50.084;8.794;2022-07-30T04:49:46;21.40;99.90
9847;DHT22;4962;50.084;8.794;2022-07-30T04:52:15;21.40;99.90
9847;DHT22;4962;50.084;8.794;2022-07-30T04:54:44;21.50;99.90
9847;DHT22;4962;50.084;8.794;2022-07-30T04:57:12;21.50;99.90
9847;DHT22;4962;50.084;8.794;2022-07-30T04:59:41;21.60;99.90
9847;DHT22;4962;50.084;8.794;2022-07-30T05:02:08;21.70;99.90
9847;DHT22;4962;50.084;8.794;2022-07-30T05:04:38;21.80;99.90
9847;DHT22;4962;50.084;8.794;2022-07-30T05:07:06;22.00;99.90
9847;DHT22;4962;50.084;8.794;2022-07-30T05:09:33;22.20;99.90
9847;DHT22;4962;50.084;8.794;2022-07-30T05:12:00;22.40;99.90
9847;DHT22;4962;50.084;8.794;2022-07-30T05:14:28;22.60;99.90
9847;DHT22;4962;50.084;8.794;2022-07-30T05:16:55;22.70;99.90
9847;DHT22;4962;50.084;8.794;2022-07-30T05:19:22;22.80;99.90
9847;DHT22;4962;50.084;8.794;2022-07-30T05:21:51;22.90;99.90
9847;DHT22;4962;50.084;8.794;2022-07-30T05:24:18;23.10;99.90
9847;DHT22;4962;50.084;8.794;2022-07-30T05:26:46;23.20;99.90
9847;DHT22;4962;50.084;8.794;2022-07-30T05:29:13;23.50;99.90
9847;DHT22;4962;50.084;8.794;2022-07-30T05:31:40;23.70;99.90
9847;DHT22;4962;50.084;8.794;2022-07-30T05:34:07;23.90;99.90
9847;DHT22;4962;50.084;8.794;2022-07-30T05:36:33;24.20;99.90
9847;DHT22;4962;50.084;8.794;2022-07-30T05:39:02;24.50;99.90
9847;DHT22;4962;50.084;8.794;2022-07-30T05:41:30;24.80;99.90
9847;DHT22;4962;50.084;8.794;2022-07-30T05:43:56;25.00;99.90
9847;DHT22;4962;50.084;8.794;2022-07-30T05:46:23;25.20;99.90
9847;DHT22;4962;50.084;8.794;2022-07-30T05:48:50;25.40;99.90
9847;DHT22;4962;50.084;8.794;2022-07-30T05:51:17;25.50;99.90
9847;DHT22;4962;50.084;8.794;2022-07-30T05:53:45;25.60;99.90
9847;DHT22;4962;50.084;8.794;2022-07-30T05:56:13;25.70;99.90
9847;DHT22;4962;50.084;8.794;2022-07-30T05:58:42;25.90;99.90
9847;DHT22;4962;50.084;8.794;2022-07-30T06:01:09;26.00;99.90
9847;DHT22;4962;50.084;8.794;2022-07-30T06:03:36;26.10;99.90
9847;DHT22;4962;50.084;8.794;2022-07-30T06:06:03;26.20;99.90
9847;DHT22;4962;50.084;8.794;2022-07-30T06:08:30;26.40;99.90
9847;DHT22;4962;50.084;8.794;2022-07-30T06:10:57;26.50;99.90
9847;DHT22;4962;50.084;8.794;2022-07-30T06:13:26;26.40;99.90
9847;DHT22;4962;50.084;8.794;2022-07-30T06:15:53;26.40;99.90
9847;DHT22;4962;50.084;8.794;2022-07-30T06:18:19;26.30;99.90
9847;DHT22;4962;50.084;8.794;2022-07-30T06:20:46;26.30;99.90
9847;DHT22;4962;50.084;8.794;2022-07-30T06:23:16;26.20;99.90
9847;DHT22;4962;50.084;8.794;2022-07-30T06:25:43;26.10;99.90
9847;DHT22;4962;50.084;8.794;2022-07-30T06:28:09;26.10;99.90
9847;DHT22;4962;50.084;8.794;2022-07-30T06:30:38;26.00;99.90
9847;DHT22;4962;50.084;8.794;2022-07-30T06:33:05;25.90;99.90
9847;DHT22;4962;50.084;8.794;2022-07-30T06:35:32;25.80;99.90
9847;DHT22;4962;50.084;8.794;2022-07-30T06:37:59;25.60;99.90
9847;DHT22;4962;50.084;8.794;2022-07-30T06:40:26;25.50;99.90
9847;DHT22;4962;50.084;8.794;2022-07-30T06:42:53;25.30;99.90
9847;DHT22;4962;50.084;8.794;2022-07-30T06:45:20;25.10;99.90
9847;DHT22;4962;50.084;8.794;2022-07-30T06:47:48;25.00;99.90
9847;DHT22;4962;50.084;8.794;2022-07-30T06:50:15;25.00;99.90
9847;DHT22;4962;50.084;8.794;2022-07-30T06:52:44;24.80;99.90
9847;DHT22;4962;50.084;8.794;2022-07-30T06:55:11;24.60;99.90
9847;DHT22;4962;50.084;8.794;2022-07-30T06:57:38;24.50;99.90
9847;DHT22;4962;50.084;8.794;2022-07-30T07:00:06;24.40;99.90
9847;DHT22;4962;50.084;8.794;2022-07-30T07:02:34;24.30;99.90
9847;DHT22;4962;50.084;8.794;2022-07-30T07:05:02;24.20;99.90
9847;DHT22;4962;50.084;8.794;2022-07-30T07:07:29;24.20;99.90
9847;DHT22;4962;50.084;8.794;2022-07-30T07:10:11;24.10;99.90
9847;DHT22;4962;50.084;8.794;2022-07-30T07:12:38;24.00;99.90
9847;DHT22;4962;50.084;8.794;2022-07-30T07:15:07;24.00;99.90
9847;DHT22;4962;50.084;8.794;2022-07-30T07:17:34;24.00;99.90
9847;DHT22;4962;50.084;8.794;2022-07-30T07:41:51;24.30;99.90
9847;DHT22;4962;50.084;8.794;2022-07-30T07:44:24;24.40;99.90
9847;DHT22;4962;50.084;8.794;2022-07-30T07:46:53;24.60;99.90
9847;DHT22;4962;50.084;8.794;2022-07-30T07:49:22;24.70;99.90
9847;DHT22;4962;50.084;8.794;2022-07-30T07:51:49;24.80;99.90
9847;DHT22;4962;50.084;8.794;2022-07-30T07:54:16;25.00;99.90
9847;DHT22;4962;50.084;8.794;2022-07-30T07:56:43;25.20;99.90
9847;DHT22;4962;50.084;8.794;2022-07-30T07:59:12;25.60;99.90
9847;DHT22;4962;50.084;8.794;2022-07-30T08:01:39;26.40;99.90
9847;DHT22;4962;50.084;8.794;2022-07-30T08:04:10;27.20;99.90
9847;DHT22;4962;50.084;8.794;2022-07-30T08:06:40;27.80;99.90
9847;DHT22;4962;50.084;8.794;2022-07-30T08:09:07;28.60;99.90
9847;DHT22;4962;50.084;8.794;2022-07-30T08:11:40;29.40;99.30
9847;DHT22;4962;50.084;8.794;2022-07-30T08:14:07;30.30;97.90
9847;DHT22;4962;50.084;8.794;2022-07-30T08:16:36;31.30;96.60
9847;DHT22;4962;50.084;8.794;2022-07-30T08:19:03;32.10;94.80
9847;DHT22;4962;50.084;8.794;2022-07-30T08:21:30;32.80;92.80
9847;DHT22;4962;50.084;8.794;2022-07-30T08:23:57;33.50;91.00
9847;DHT22;4962;50.084;8.794;2022-07-30T08:26:24;34.00;89.20
9847;DHT22;4962;50.084;8.794;2022-07-30T08:28:53;34.50;85.80
9847;DHT22;4962;50.084;8.794;2022-07-30T08:31:20;34.90;82.80
9847;DHT22;4962;50.084;8.794;2022-07-30T08:33:48;35.00;79.40
9847;DHT22;4962;50.084;8.794;2022-07-30T08:36:15;35.00;76.50
9847;DHT22;4962;50.084;8.794;2022-07-30T08:38:42;34.80;73.50
9847;DHT22;4962;50.084;8.794;2022-07-30T08:41:10;34.40;71.50
9847;DHT22;4962;50.084;8.794;2022-07-30T08:43:38;33.90;70.70
9847;DHT22;4962;50.084;8.794;2022-07-30T08:46:08;33.40;70.30
9847;DHT22;4962;50.084;8.794;2022-07-30T08:48:35;32.90;70.60
9847;DHT22;4962;50.084;8.794;2022-07-30T08:51:04;32.40;70.40
9847;DHT22;4962;50.084;8.794;2022-07-30T08:53:32;32.00;71.00
9847;DHT22;4962;50.084;8.794;2022-07-30T08:55:59;31.50;71.70
9847;DHT22;4962;50.084;8.794;2022-07-30T08:58:28;31.20;72.50
9847;DHT22;4962;50.084;8.794;2022-07-30T09:00:55;30.80;73.40
9847;DHT22;4962;50.084;8.794;2022-07-30T09:03:22;30.50;74.00
9847;DHT22;4962;50.084;8.794;2022-07-30T09:05:49;30.20;74.60
9847;DHT22;4962;50.084;8.794;2022-07-30T09:08:18;29.90;74.90
9847;DHT22;4962;50.084;8.794;2022-07-30T09:10:46;29.60;75.30
9847;DHT22;4962;50.084;8.794;2022-07-30T09:13:26;29.40;75.80
9847;DHT22;4962;50.084;8.794;2022-07-30T09:15:54;29.10;76.60
9847;DHT22;4962;50.084;8.794;2022-07-30T09:18:29;28.90;77.20
9847;DHT22;4962;50.084;8.794;2022-07-30T09:20:58;28.70;77.90
9847;DHT22;4962;50.084;8.794;2022-07-30T09:23:27;28.50;78.80
9847;DHT22;4962;50.084;8.794;2022-07-30T09:25:54;28.40;79.40
9847;DHT22;4962;50.084;8.794;2022-07-30T09:28:27;28.20;80.10
9847;DHT22;4962;50.084;8.794;2022-07-30T09:30:55;28.10;80.70
9847;DHT22;4962;50.084;8.794;2022-07-30T09:33:33;28.00;81.20
9847;DHT22;4962;50.084;8.794;2022-07-30T09:36:00;27.90;81.60
9847;DHT22;4962;50.084;8.794;2022-07-30T09:38:41;27.80;82.00
9847;DHT22;4962;50.084;8.794;2022-07-30T09:41:09;27.80;82.10
9847;DHT22;4962;50.084;8.794;2022-07-30T09:43:44;27.70;82.30
9847;DHT22;4962;50.084;8.794;2022-07-30T09:46:12;27.70;82.60
9847;DHT22;4962;50.084;8.794;2022-07-30T09:48:39;27.60;82.90
9847;DHT22;4962;50.084;8.794;2022-07-30T09:51:06;27.60;82.80
9847;DHT22;4962;50.084;8.794;2022-07-30T09:53:35;27.60;82.60
9847;DHT22;4962;50.084;8.794;2022-07-30T09:56:23;27.50;82.70
9847;DHT22;4962;50.084;8.794;2022-07-30T09:58:50;27.50;82.90
9847;DHT22;4962;50.084;8.794;2022-07-30T10:01:17;27.50;82.70
9847;DHT22;4962;50.084;8.794;2022-07-30T10:03:44;27.50;82.40
9847;DHT22;4962;50.084;8.794;2022-07-30T10:06:12;27.50;82.60
9847;DHT22;4962;50.084;8.794;2022-07-30T10:08:42;27.50;82.60
9847;DHT22;4962;50.084;8.794;2022-07-30T10:11:10;27.50;81.50
9847;DHT22;4962;50.084;8.794;2022-07-30T10:13:38;27.50;80.60
9847;DHT22;4962;50.084;8.794;2022-07-30T10:16:06;27.50;79.90
9847;DHT22;4962;50.084;8.794;2022-07-30T10:18:33;27.40;79.60
9847;DHT22;4962;50.084;8.794;2022-07-30T10:21:00;27.40;79.20
9847;DHT22;4962;50.084;8.794;2022-07-30T10:23:28;27.30;79.30
9847;DHT22;4962;50.084;8.794;2022-07-30T10:25:58;27.30;79.70
9847;DHT22;4962;50.084;8.794;2022-07-30T10:28:27;27.30;80.40
9847;DHT22;4962;50.084;8.794;2022-07-30T10:30:56;27.30;80.80
9847;DHT22;4962;50.084;8.794;2022-07-30T10:33:24;27.30;81.00
9847;DHT22;4962;50.084;8.794;2022-07-30T10:35:52;27.30;80.50
9847;DHT22;4962;50.084;8.794;2022-07-30T10:38:21;27.30;80.20
9847;DHT22;4962;50.084;8.794;2022-07-30T10:40:54;27.30;81.10
9847;DHT22;4962;50.084;8.794;2022-07-30T10:43:57;27.30;78.50
9847;DHT22;4962;50.084;8.794;2022-07-30T10:46:41;27.20;78.60
9847;DHT22;4962;50.084;8.794;2022-07-30T10:49:10;27.20;79.40
9847;DHT22;4962;50.084;8.794;2022-07-30T10:51:45;27.20;79.40
9847;DHT22;4962;50.084;8.794;2022-07-30T10:54:35;27.20;79.10
9847;DHT22;4962;50.084;8.794;2022-07-30T10:57:04;27.20;79.10
9847;DHT22;4962;50.084;8.794;2022-07-30T11:02:34;27.20;79.70
9847;DHT22;4962;50.084;8.794;2022-07-30T11:05:21;27.20;78.90
9847;DHT22;4962;50.084;8.794;2022-07-30T11:07:48;27.20;78.00
9847;DHT22;4962;50.084;8.794;2022-07-30T11:10:37;27.20;76.90
9847;DHT22;4962;50.084;8.794;2022-07-30T11:13:08;27.20;75.70
9847;DHT22;4962;50.084;8.794;2022-07-30T11:15:53;27.20;75.60
9847;DHT22;4962;50.084;8.794;2022-07-30T11:18:23;27.20;76.10
9847;DHT22;4962;50.084;8.794;2022-07-30T11:21:13;27.10;75.80
9847;DHT22;4962;50.084;8.794;2022-07-30T11:23:42;27.10;75.60
9847;DHT22;4962;50.084;8.794;2022-07-30T11:26:11;27.10;75.00
9847;DHT22;4962;50.084;8.794;2022-07-30T11:28:57;27.00;74.60
9847;DHT22;4962;50.084;8.794;2022-07-30T11:31:28;26.90;74.20
9847;DHT22;4962;50.084;8.794;2022-07-30T11:34:28;26.80;73.80
9847;DHT22;4962;50.084;8.794;2022-07-30T11:37:06;26.80;71.60
9847;DHT22;4962;50.084;8.794;2022-07-30T11:40:08;26.80;71.10
9847;DHT22;4962;50.084;8.794;2022-07-30T11:42:39;26.70;71.30
9847;DHT22;4962;50.084;8.794;2022-07-30T11:45:23;26.70;71.40
9847;DHT22;4962;50.084;8.794;2022-07-30T11:47:57;26.70;71.50
9847;DHT22;4962;50.084;8.794;2022-07-30T11:50:29;26.70;71.60
9847;DHT22;4962;50.084;8.794;2022-07-30T11:52:58;26.70;70.90
9847;DHT22;4962;50.084;8.794;2022-07-30T11:55:27;26.70;70.00
9847;DHT22;4962;50.084;8.794;2022-07-30T11:57:57;26.70;70.10
9847;DHT22;4962;50.084;8.794;2022-07-30T12:00:33;26.70;70.40
9847;DHT22;4962;50.084;8.794;2022-07-30T12:03:06;26.70;70.00
9847;DHT22;4962;50.084;8.794;2022-07-30T12:05:38;26.70;70.10
9847;DHT22;4962;50.084;8.794;2022-07-30T12:08:05;26.70;70.30
9847;DHT22;4962;50.084;8.794;2022-07-30T12:10:32;26.70;70.20
9847;DHT22;4962;50.084;8.794;2022-07-30T12:13:08;26.70;70.20
9847;DHT22;4962;50.084;8.794;2022-07-30T12:15:38;26.70;70.20
9847;DHT22;4962;50.084;8.794;2022-07-30T12:21:25;26.70;69.20
9847;DHT22;4962;50.084;8.794;2022-07-30T12:24:00;26.80;68.50
9847;DHT22;4962;50.084;8.794;2022-07-30T12:26:29;26.80;68.60
9847;DHT22;4962;50.084;8.794;2022-07-30T12:28:58;26.80;68.90
9847;DHT22;4962;50.084;8.794;2022-07-30T12:31:26;26.80;68.60
9847;DHT22;4962;50.084;8.794;2022-07-30T12:33:53;26.80;67.50
9847;DHT22;4962;50.084;8.794;2022-07-30T12:36:28;26.80;66.50
9847;DHT22;4962;50.084;8.794;2022-07-30T12:38:55;26.90;67.00
9847;DHT22;4962;50.084;8.794;2022-07-30T12:41:34;26.90;67.30
9847;DHT22;4962;50.084;8.794;2022-07-30T12:44:06;26.90;66.90
9847;DHT22;4962;50.084;8.794;2022-07-30T12:46:38;26.90;67.00
9847;DHT22;4962;50.084;8.794;2022-07-30T12:49:06;27.00;67.00
9847;DHT22;4962;50.084;8.794;2022-07-30T12:51:36;27.00;67.00
9847;DHT22;4962;50.084;8.794;2022-07-30T12:54:16;27.00;67.30
9847;DHT22;4962;50.084;8.794;2022-07-30T12:56:55;27.00;68.00
9847;DHT22;4962;50.084;8.794;2022-07-30T12:59:23;27.10;68.90
9847;DHT22;4962;50.084;8.794;2022-07-30T13:01:51;27.10;68.90
9847;DHT22;4962;50.084;8.794;2022-07-30T13:04:18;27.20;68.50
9847;DHT22;4962;50.084;8.794;2022-07-30T13:07:05;27.20;68.70
9847;DHT22;4962;50.084;8.794;2022-07-30T13:09:32;27.30;68.90
9847;DHT22;4962;50.084;8.794;2022-07-30T13:11:59;27.30;68.60
9847;DHT22;4962;50.084;8.794;2022-07-30T13:14:26;27.30;68.30
9847;DHT22;4962;50.084;8.794;2022-07-30T13:16:53;27.40;68.50
9847;DHT22;4962;50.084;8.794;2022-07-30T13:19:21;27.40;68.50
9847;DHT22;4962;50.084;8.794;2022-07-30T13:21:48;27.40;68.20
9847;DHT22;4962;50.084;8.794;2022-07-30T13:24:16;27.50;68.00
9847;DHT22;4962;50.084;8.794;2022-07-30T13:26:43;27.60;67.80
9847;DHT22;4962;50.084;8.794;2022-07-30T13:29:10;27.60;67.40
9847;DHT22;4962;50.084;8.794;2022-07-30T13:31:38;27.60;66.40
9847;DHT22;4962;50.084;8.794;2022-07-30T13:34:05;27.70;66.10
9847;DHT22;4962;50.084;8.794;2022-07-30T13:36:32;27.70;66.30
9847;DHT22;4962;50.084;8.794;2022-07-30T13:38:59;27.80;66.20
9847;DHT22;4962;50.084;8.794;2022-07-30T13:41:28;27.80;65.80
9847;DHT22;4962;50.084;8.794;2022-07-30T13:43:55;27.90;65.60
9847;DHT22;4962;50.084;8.794;2022-07-30T13:46:22;28.00;66.10
9847;DHT22;4962;50.084;8.794;2022-07-30T13:48:48;28.00;66.10
9847;DHT22;4962;50.084;8.794;2022-07-30T13:51:15;28.10;66.00
9847;DHT22;4962;50.084;8.794;2022-07-30T13:53:42;28.20;65.70
9847;DHT22;4962;50.084;8.794;2022-07-30T13:56:09;28.20;65.80
9847;DHT22;4962;50.084;8.794;2022-07-30T13:58:37;28.40;66.00
9847;DHT22;4962;50.084;8.794;2022-07-30T14:01:04;28.40;65.70
9847;DHT22;4962;50.084;8.794;2022-07-30T14:03:31;28.50;65.30
9847;DHT22;4962;50.084;8.794;2022-07-30T14:05:58;28.50;65.20
9847;DHT22;4962;50.084;8.794;2022-07-30T14:08:25;28.60;65.20
9847;DHT22;4962;50.084;8.794;2022-07-30T14:10:53;28.60;65.10
9847;DHT22;4962;50.084;8.794;2022-07-30T14:13:20;28.60;64.50
9847;DHT22;4962;50.084;8.794;2022-07-30T14:15:48;28.50;64.00
9847;DHT22;4962;50.084;8.794;2022-07-30T14:18:15;28.50;64.00
9847;DHT22;4962;50.084;8.794;2022-07-30T14:20:42;28.40;64.10
9847;DHT22;4962;50.084;8.794;2022-07-30T14:23:08;28.40;64.10
9847;DHT22;4962;50.084;8.794;2022-07-30T14:25:35;28.40;63.80
9847;DHT22;4962;50.084;8.794;2022-07-30T14:28:03;28.30;63.50
9847;DHT22;4962;50.084;8.794;2022-07-30T14:30:30;28.30;63.30
9847;DHT22;4962;50.084;8.794;2022-07-30T14:32:58;28.20;62.90
9847;DHT22;4962;50.084;8.794;2022-07-30T14:35:25;28.20;62.90
9847;DHT22;4962;50.084;8.794;2022-07-30T14:37:52;28.20;63.10
9847;DHT22;4962;50.084;8.794;2022-07-30T14:40:19;28.10;62.90
9847;DHT22;4962;50.084;8.794;2022-07-30T14:42:45;28.10;62.90
9847;DHT22;4962;50.084;8.794;2022-07-30T14:45:13;28.10;63.10
9847;DHT22;4962;50.084;8.794;2022-07-30T14:47:40;28.10;63.50
9847;DHT22;4962;50.084;8.794;2022-07-30T14:50:09;28.10;63.70
9847;DHT22;4962;50.084;8.794;2022-07-30T14:52:36;28.10;63.50
9847;DHT22;4962;50.084;8.794;2022-07-30T14:55:04;28.10;63.70
9847;DHT22;4962;50.084;8.794;2022-07-30T14:57:31;28.10;63.70
9847;DHT22;4962;50.084;8.794;2022-07-30T14:59:58;28.10;63.70
9847;DHT22;4962;50.084;8.794;2022-07-30T15:02:25;28.10;63.40
9847;DHT22;4962;50.084;8.794;2022-07-30T15:04:52;28.10;62.60
9847;DHT22;4962;50.084;8.794;2022-07-30T15:07:20;28.10;62.60
9847;DHT22;4962;50.084;8.794;2022-07-30T15:09:47;28.10;62.90
9847;DHT22;4962;50.084;8.794;2022-07-30T15:12:13;28.10;62.90
9847;DHT22;4962;50.084;8.794;2022-07-30T15:14:41;28.10;62.90
9847;DHT22;4962;50.084;8.794;2022-07-30T15:17:10;28.10;62.60
9847;DHT22;4962;50.084;8.794;2022-07-30T15:19:37;28.00;62.60
9847;DHT22;4962;50.084;8.794;2022-07-30T15:22:03;28.10;62.60
9847;DHT22;4962;50.084;8.794;2022-07-30T15:31:16;27.90;63.10
9847;DHT22;4962;50.084;8.794;2022-07-30T15:33:42;27.90;63.20
9847;DHT22;4962;50.084;8.794;2022-07-30T15:36:10;27.90;63.30
9847;DHT22;4962;50.084;8.794;2022-07-30T15:38:37;27.90;63.40
9847;DHT22;4962;50.084;8.794;2022-07-30T15:41:04;27.90;63.70
9847;DHT22;4962;50.084;8.794;2022-07-30T15:43:31;27.90;63.90
9847;DHT22;4962;50.084;8.794;2022-07-30T15:45:58;27.90;63.70
9847;DHT22;4962;50.084;8.794;2022-07-30T15:48:36;27.80;63.80
9847;DHT22;4962;50.084;8.794;2022-07-30T15:51:04;27.80;63.80
9847;DHT22;4962;50.084;8.794;2022-07-30T15:53:31;27.80;63.90
9847;DHT22;4962;50.084;8.794;2022-07-30T15:55:59;27.80;63.70
9847;DHT22;4962;50.084;8.794;2022-07-30T15:58:26;27.80;63.50
9847;DHT22;4962;50.084;8.794;2022-07-30T16:00:53;27.80;63.80
9847;DHT22;4962;50.084;8.794;2022-07-30T16:03:20;27.80;64.00
9847;DHT22;4962;50.084;8.794;2022-07-30T16:05:49;27.80;63.80
9847;DHT22;4962;50.084;8.794;2022-07-30T16:08:15;27.80;63.80
9847;DHT22;4962;50.084;8.794;2022-07-30T16:10:42;27.80;64.20
9847;DHT22;4962;50.084;8.794;2022-07-30T16:13:09;27.80;64.30
9847;DHT22;4962;50.084;8.794;2022-07-30T16:15:36;27.80;65.40
9847;DHT22;4962;50.084;8.794;2022-07-30T16:18:03;27.70;64.40
9847;DHT22;4962;50.084;8.794;2022-07-30T16:20:31;27.80;64.20
9847;DHT22;4962;50.084;8.794;2022-07-30T16:23:00;27.70;64.10
9847;DHT22;4962;50.084;8.794;2022-07-30T16:25:26;27.80;64.40
9847;DHT22;4962;50.084;8.794;2022-07-30T16:27:53;27.80;64.80
9847;DHT22;4962;50.084;8.794;2022-07-30T16:30:20;27.80;65.10
9847;DHT22;4962;50.084;8.794;2022-07-30T16:32:48;27.80;65.00
9847;DHT22;4962;50.084;8.794;2022-07-30T16:35:16;27.80;64.80
9847;DHT22;4962;50.084;8.794;2022-07-30T16:37:43;27.90;64.90
9847;DHT22;4962;50.084;8.794;2022-07-30T16:40:12;27.90;64.70
9847;DHT22;4962;50.084;8.794;2022-07-30T16:42:39;27.90;64.70
9847;DHT22;4962;50.084;8.794;2022-07-30T16:45:07;27.90;64.70
9847;DHT22;4962;50.084;8.794;2022-07-30T16:47:34;27.90;64.30
9847;DHT22;4962;50.084;8.794;2022-07-30T16:50:01;27.90;64.40